Time;durP1;ratioP1;P1;durP2;ratioP2;P2;SDS_P1;SDS_P2;PMS_P1;PMS_P2;Temp;Humidity;BMP_temperature;BMP_pressure;BME280_temperature;BME280_humidity;BME280_pressure;Samples;Min_cycle;Max_cycle;Signal;HPM_P1;HPM_P2
2021/06/16 00:02:00;;;;;;;15.30;11.37;;;;;;;;;;20853904;28;20343;-58
2021/06/16 00:12:00;;;;;;;12.17;10.97;;;;;;;;;;20841534;28;20219;-59
2021/06/16 00:22:00;;;;;;;10.43;9.43;;;;;;;;;;20838137;28;20267;-59
2021/06/16 00:32:01;;;;;;;12.13;10.43;;;;;;;;;;20867719;28;20217;-63
2021/06/16 00:42:01;;;;;;;12.30;10.17;;;;;;;;;;20870841;28;20228;-61
2021/06/16 00:52:02;;;;;;;14.13;11.65;;;;;;;;;;20824881;28;20796;-58
2021/06/16 01:02:03;;;;;;;10.37;9.27;;;;;;;;;;20824785;28;20637;-65
2021/06/16 01:12:16;;;;;;;18.57;13.77;;;;;;;;;;20928437;28;20261;-62
2021/06/16 01:22:23;;;;;;;11.23;10.17;;;;;;;;;;20838729;28;20219;-58
2021/06/16 01:32:23;;;;;;;12.10;11.00;;;;;;;;;;20848438;28;20774;-62
2021/06/16 01:42:24;;;;;;;13.07;10.30;;;;;;;;;;20904773;28;20338;-58
2021/06/16 01:52:25;;;;;;;14.57;12.80;;;;;;;;;;20904239;28;20273;-61
2021/06/16 02:02:25;;;;;;;13.03;11.10;;;;;;;;;;20903721;28;20227;-60
2021/06/16 02:12:26;;;;;;;10.30;8.07;;;;;;;;;;20919980;28;20252;-67
2021/06/16 02:22:27;;;;;;;7.20;6.00;;;;;;;;;;20917904;28;20238;-56
2021/06/16 02:32:27;;;;;;;8.30;5.83;;;;;;;;;;20894428;28;20207;-57
2021/06/16 02:42:28;;;;;;;5.43;4.07;;;;;;;;;;20904751;28;20228;-67
2021/06/16 02:52:29;;;;;;;6.32;3.85;;;;;;;;;;20835197;28;20219;-68
2021/06/16 03:02:30;;;;;;;4.40;3.53;;;;;;;;;;20834390;28;20220;-67
2021/06/16 03:12:30;;;;;;;3.77;3.10;;;;;;;;;;20833764;28;20730;-63
2021/06/16 03:22:31;;;;;;;3.87;3.27;;;;;;;;;;20863478;28;20223;-66
2021/06/16 03:32:32;;;;;;;3.33;2.73;;;;;;;;;;20862178;28;20216;-65
2021/06/16 03:42:33;;;;;;;3.77;3.10;;;;;;;;;;20883040;28;20228;-65
2021/06/16 03:52:34;;;;;;;5.00;3.33;;;;;;;;;;20830894;28;20234;-69
2021/06/16 04:02:34;;;;;;;2.80;2.60;;;;;;;;;;20829847;28;20224;-65
2021/06/16 04:12:35;;;;;;;3.80;2.40;;;;;;;;;;20849463;28;20518;-63
2021/06/16 04:22:35;;;;;;;3.63;2.17;;;;;;;;;;20910694;28;20216;-58
2021/06/16 04:32:36;;;;;;;4.03;2.27;;;;;;;;;;20909791;28;20207;-65
2021/06/16 04:42:37;;;;;;;2.10;1.60;;;;;;;;;;20853013;28;20251;-69
2021/06/16 04:52:37;;;;;;;2.25;1.60;;;;;;;;;;20818322;28;20604;-59
2021/06/16 05:02:38;;;;;;;2.47;1.40;;;;;;;;;;20775109;28;20597;-63
2021/06/16 05:12:38;;;;;;;3.83;1.70;;;;;;;;;;20794054;28;20226;-59
2021/06/16 05:22:39;;;;;;;2.17;1.40;;;;;;;;;;20804609;28;20250;-62
2021/06/16 05:32:39;;;;;;;3.20;1.50;;;;;;;;;;20759292;28;20252;-61
2021/06/16 05:42:40;;;;;;;2.27;1.70;;;;;;;;;;20734193;28;20836;-59
2021/06/16 05:52:40;;;;;;;3.67;1.88;;;;;;;;;;20744951;28;20219;-58
2021/06/16 06:02:41;;;;;;;6.03;1.70;;;;;;;;;;20819003;28;20256;-58
2021/06/16 06:12:42;;;;;;;3.40;1.57;;;;;;;;;;20821217;28;20719;-57
2021/06/16 06:22:42;;;;;;;3.63;1.73;;;;;;;;;;20820828;28;20869;-57
2021/06/16 06:32:42;;;;;;;3.23;1.40;;;;;;;;;;20820420;28;20270;-57
2021/06/16 06:42:42;;;;;;;1.80;1.33;;;;;;;;;;20819726;28;20231;-58
2021/06/16 06:52:44;;;;;;;3.90;1.47;;;;;;;;;;20825415;28;20221;-57
2021/06/16 07:02:45;;;;;;;2.03;1.00;;;;;;;;;;20834531;28;20234;-57
2021/06/16 07:12:46;;;;;;;3.10;1.30;;;;;;;;;;20833940;28;20226;-59
2021/06/16 07:22:47;;;;;;;2.13;1.60;;;;;;;;;;20832968;28;20298;-58
2021/06/16 07:32:47;;;;;;;3.30;1.70;;;;;;;;;;20832286;28;20250;-68
2021/06/16 07:42:47;;;;;;;2.93;1.53;;;;;;;;;;20831235;28;20226;-61
2021/06/16 07:52:48;;;;;;;2.50;1.10;;;;;;;;;;20830757;28;20303;-59
2021/06/16 08:02:48;;;;;;;2.50;1.40;;;;;;;;;;20829556;28;20220;-59
2021/06/16 08:12:48;;;;;;;3.30;1.23;;;;;;;;;;20829126;28;20527;-59
2021/06/16 08:22:49;;;;;;;2.67;0.90;;;;;;;;;;20828734;28;20299;-61
2021/06/16 08:32:49;;;;;;;3.07;1.33;;;;;;;;;;20827801;28;20320;-64
2021/06/16 08:42:50;;;;;;;2.63;1.20;;;;;;;;;;20826615;28;20220;-64
2021/06/16 08:52:50;;;;;;;2.40;1.40;;;;;;;;;;20826116;28;20314;-58
2021/06/16 09:02:51;;;;;;;3.63;2.13;;;;;;;;;;20825437;28;20220;-57
2021/06/16 09:12:54;;;;;;;9.37;2.00;;;;;;;;;;20823613;28;20585;-70
2021/06/16 09:23:08;;;;;;;2.53;1.50;;;;;;;;;;20823440;28;20228;-58
2021/06/16 09:33:11;;;;;;;4.70;1.90;;;;;;;;;;20903951;28;20208;-65
2021/06/16 09:43:13;;;;;;;3.17;1.67;;;;;;;;;;20821633;28;20277;-58
2021/06/16 09:53:14;;;;;;;4.70;2.47;;;;;;;;;;20822105;28;20200;-65
2021/06/16 10:03:22;;;;;;;3.40;2.47;;;;;;;;;;20821558;28;20226;-57
2021/06/16 10:13:26;;;;;;;4.40;2.27;;;;;;;;;;20820926;28;20200;-58
2021/06/16 10:23:26;;;;;;;2.10;1.90;;;;;;;;;;20821056;28;20230;-61
2021/06/16 10:33:27;;;;;;;3.77;2.23;;;;;;;;;;20835822;28;20598;-57
2021/06/16 10:43:29;;;;;;;2.13;1.70;;;;;;;;;;20835584;28;20216;-64
2021/06/16 10:53:29;;;;;;;13.33;2.83;;;;;;;;;;20835356;28;20334;-58
2021/06/16 11:03:52;;;;;;;8.57;3.10;;;;;;;;;;20834682;28;20721;-58
2021/06/16 11:13:53;;;;;;;6.13;2.73;;;;;;;;;;20833632;28;20208;-58
2021/06/16 11:23:53;;;;;;;3.57;2.40;;;;;;;;;;20833237;28;20223;-58
2021/06/16 11:33:55;;;;;;;6.07;3.10;;;;;;;;;;20832271;28;20204;-66
2021/06/16 11:43:58;;;;;;;4.33;3.00;;;;;;;;;;20830563;28;20760;-58
2021/06/16 11:54:03;;;;;;;3.03;2.80;;;;;;;;;;20830838;28;20262;-58
2021/06/16 12:04:03;;;;;;;2.80;2.60;;;;;;;;;;20829833;28;20220;-57
2021/06/16 12:14:08;;;;;;;3.37;3.07;;;;;;;;;;20829318;28;20216;-57
2021/06/16 12:24:41;;;;;;;7.07;3.30;;;;;;;;;;20828584;28;20224;-57
2021/06/16 12:35:03;;;;;;;4.38;2.92;;;;;;;;;;20735482;28;20690;-59
2021/06/16 12:45:02;;;;;;;5.10;3.40;;;;;;;;;;20660420;28;20328;-57
2021/06/16 12:55:21;;;;;;;7.00;3.78;;;;;;;;;;20642426;28;20312;-58
2021/06/16 13:05:26;;;;;;;3.20;2.90;;;;;;;;;;20684681;28;20273;-58
2021/06/16 13:15:46;;;;;;;3.13;2.57;;;;;;;;;;20791533;28;20224;-63
2021/06/16 13:25:48;;;;;;;4.27;2.60;;;;;;;;;;20789607;28;20233;-58
2021/06/16 13:35:48;;;;;;;2.80;2.45;;;;;;;;;;20816225;28;20990;-57
2021/06/16 13:45:48;;;;;;;3.20;3.00;;;;;;;;;;20847327;28;20220;-64
2021/06/16 13:55:49;;;;;;;5.63;2.90;;;;;;;;;;20818789;28;20326;-57
2021/06/16 14:05:50;;;;;;;2.60;2.40;;;;;;;;;;20832116;28;20304;-57
2021/06/16 14:15:50;;;;;;;3.23;3.00;;;;;;;;;;20821618;28;20587;-58
2021/06/16 14:25:51;;;;;;;2.93;2.57;;;;;;;;;;20817530;28;20215;-58
2021/06/16 14:35:51;;;;;;;3.20;2.17;;;;;;;;;;20825229;28;20303;-59
2021/06/16 14:45:52;;;;;;;3.10;2.60;;;;;;;;;;20821453;28;20266;-58
2021/06/16 14:55:52;;;;;;;2.63;2.40;;;;;;;;;;20805942;28;20232;-59
2021/06/16 15:05:52;;;;;;;2.70;2.30;;;;;;;;;;20737384;28;20938;-59
2021/06/16 15:15:53;;;;;;;2.37;2.17;;;;;;;;;;20744137;28;20225;-64
2021/06/16 15:25:53;;;;;;;3.23;2.87;;;;;;;;;;20811434;28;20215;-58
2021/06/16 15:35:54;;;;;;;2.63;2.43;;;;;;;;;;20843312;28;20223;-58
2021/06/16 15:45:54;;;;;;;2.13;2.03;;;;;;;;;;20853729;28;20789;-64
2021/06/16 15:55:56;;;;;;;3.70;2.43;;;;;;;;;;20882110;28;20266;-58
2021/06/16 16:05:58;;;;;;;2.63;2.13;;;;;;;;;;20874372;28;20214;-58
2021/06/16 16:15:58;;;;;;;1.97;1.87;;;;;;;;;;20891954;28;20328;-60
2021/06/16 16:25:59;;;;;;;5.33;2.67;;;;;;;;;;20845925;28;20227;-63
2021/06/16 16:35:59;;;;;;;3.30;2.17;;;;;;;;;;20838032;28;20243;-60
2021/06/16 16:45:59;;;;;;;3.10;2.30;;;;;;;;;;20792807;28;20216;-62
2021/06/16 16:56:00;;;;;;;2.07;1.87;;;;;;;;;;20811285;28;20274;-59
2021/06/16 17:06:00;;;;;;;1.88;1.67;;;;;;;;;;20799709;28;20891;-67
2021/06/16 17:16:00;;;;;;;1.85;1.27;;;;;;;;;;20730252;28;20225;-59
2021/06/16 17:26:01;;;;;;;4.00;1.48;;;;;;;;;;20725727;28;20256;-59
2021/06/16 17:36:02;;;;;;;1.92;1.42;;;;;;;;;;20733435;28;20257;-58
2021/06/16 17:46:03;;;;;;;2.35;1.15;;;;;;;;;;20729408;28;20232;-58
2021/06/16 17:56:04;;;;;;;2.42;1.20;;;;;;;;;;20727631;28;20542;-58
2021/06/16 18:06:04;;;;;;;1.83;0.93;;;;;;;;;;20725330;28;20223;-58
2021/06/16 18:16:07;;;;;;;1.80;1.10;;;;;;;;;;20707947;28;20225;-57
2021/06/16 18:26:08;;;;;;;1.90;1.08;;;;;;;;;;20754459;28;20213;-57
2021/06/16 18:36:08;;;;;;;1.63;1.42;;;;;;;;;;20711659;28;20278;-57
2021/06/16 18:46:08;;;;;;;1.47;1.03;;;;;;;;;;20717246;28;20251;-58
2021/06/16 18:56:09;;;;;;;2.67;0.90;;;;;;;;;;20736978;28;20228;-59
2021/06/16 19:06:09;;;;;;;1.60;1.47;;;;;;;;;;20722061;28;20201;-59
2021/06/16 19:16:10;;;;;;;2.60;1.50;;;;;;;;;;20739124;28;20282;-59
2021/06/16 19:26:11;;;;;;;1.70;1.33;;;;;;;;;;20717131;28;20203;-59
2021/06/16 19:36:12;;;;;;;3.70;1.40;;;;;;;;;;20745518;28;20237;-59
2021/06/16 19:46:12;;;;;;;1.83;1.10;;;;;;;;;;20848665;28;20217;-59
2021/06/16 19:56:13;;;;;;;2.03;1.23;;;;;;;;;;20838199;28;20352;-59
2021/06/16 20:06:13;;;;;;;2.10;1.10;;;;;;;;;;20802850;28;20223;-58
2021/06/16 20:16:13;;;;;;;2.53;1.13;;;;;;;;;;20787083;28;20235;-59
2021/06/16 20:26:14;;;;;;;4.10;1.30;;;;;;;;;;20799822;28;20219;-58
2021/06/16 20:36:15;;;;;;;1.00;1.00;;;;;;;;;;20790484;28;20243;-62
2021/06/16 20:46:16;;;;;;;2.00;1.30;;;;;;;;;;20792914;28;20220;-67
2021/06/16 20:56:16;;;;;;;6.53;2.53;;;;;;;;;;20795349;28;21538;-62
2021/06/16 21:06:16;;;;;;;3.43;2.40;;;;;;;;;;20721206;28;20780;-61
2021/06/16 21:16:17;;;;;;;3.33;2.03;;;;;;;;;;20787754;28;20228;-60
2021/06/16 21:26:17;;;;;;;4.03;2.40;;;;;;;;;;20775335;28;20223;-60
2021/06/16 21:36:17;;;;;;;2.43;2.23;;;;;;;;;;20821702;28;20804;-59
2021/06/16 21:46:18;;;;;;;3.00;2.20;;;;;;;;;;20779277;28;20227;-59
2021/06/16 21:56:19;;;;;;;4.53;2.70;;;;;;;;;;20786521;28;20253;-60
2021/06/16 22:06:19;;;;;;;3.37;2.33;;;;;;;;;;20783481;28;20321;-62
2021/06/16 22:16:19;;;;;;;3.97;2.10;;;;;;;;;;20790034;28;20227;-59
2021/06/16 22:26:20;;;;;;;2.87;2.00;;;;;;;;;;20801119;28;25545;-58
2021/06/16 22:36:22;;;;;;;4.03;2.30;;;;;;;;;;20795480;28;20432;-60
2021/06/16 22:46:23;;;;;;;2.93;2.47;;;;;;;;;;20823894;28;20292;-62
2021/06/16 22:56:23;;;;;;;2.63;2.20;;;;;;;;;;20788345;28;20239;-58
2021/06/16 23:06:23;;;;;;;3.97;2.23;;;;;;;;;;20804148;28;20748;-59
2021/06/16 23:16:23;;;;;;;3.90;2.07;;;;;;;;;;20793898;28;20235;-62
2021/06/16 23:26:24;;;;;;;2.67;2.10;;;;;;;;;;20790604;28;20215;-58
2021/06/16 23:36:24;;;;;;;3.47;1.97;;;;;;;;;;20757350;28;20235;-61
2021/06/16 23:46:24;;;;;;;2.90;1.77;;;;;;;;;;20797061;28;21001;-58
2021/06/16 23:56:25;;;;;;;4.73;2.47;;;;;;;;;;20816518;28;20246;-57
